Time;durP1;ratioP1;P1;durP2;ratioP2;P2;SDS_P1;SDS_P2;PMS_P1;PMS_P2;Temp;Humidity;BMP_temperature;BMP_pressure;BME280_temperature;BME280_humidity;BME280_pressure;Samples;Min_cycle;Max_cycle;Signal;HPM_P1;HPM_P2
2022/11/22 00:01:06;;;;;;;3.07;2.77;;;;;;;6.14;72.12;93762.00;5089822;28;20199;-80
2022/11/22 00:03:32;;;;;;;4.43;2.70;;;;;;;6.17;71.94;93762.38;5090145;28;20207;-82
2022/11/22 00:06:00;;;;;;;4.43;2.87;;;;;;;6.24;71.99;93767.50;5089008;28;20204;-82
2022/11/22 00:08:27;;;;;;;3.07;2.40;;;;;;;6.23;71.93;93766.72;5087237;28;20226;-81
2022/11/22 00:10:54;;;;;;;3.30;2.90;;;;;;;6.26;71.62;93763.00;5089429;28;20663;-84
2022/11/22 00:13:20;;;;;;;3.07;2.77;;;;;;;6.31;71.83;93752.19;5088530;28;20834;-82
2022/11/22 00:15:57;;;;;;;3.60;2.70;;;;;;;6.29;71.71;93754.94;5089320;28;20739;-82
2022/11/22 00:18:24;;;;;;;3.70;2.70;;;;;;;6.26;71.48;93750.22;5088989;28;20215;-81
2022/11/22 00:20:50;;;;;;;3.00;2.63;;;;;;;6.28;71.55;93745.69;5089194;28;20192;-81
2022/11/22 00:23:18;;;;;;;3.13;2.70;;;;;;;6.26;71.83;93742.53;5089484;28;20208;-82
2022/11/22 00:25:45;;;;;;;2.77;2.43;;;;;;;6.22;71.52;93744.69;5089089;28;20207;-82
2022/11/22 00:28:11;;;;;;;3.37;2.93;;;;;;;6.21;71.96;93743.13;5087513;28;20217;-80
2022/11/22 00:30:38;;;;;;;2.83;2.60;;;;;;;6.16;72.54;93734.47;5089544;28;20832;-84
2022/11/22 00:33:04;;;;;;;3.00;2.80;;;;;;;6.17;72.75;93744.50;5089228;28;20319;-81
2022/11/22 00:35:31;;;;;;;2.60;2.40;;;;;;;6.19;72.58;93747.63;5088707;28;20196;-82
2022/11/22 00:37:57;;;;;;;2.80;2.60;;;;;;;6.24;72.33;93747.84;5088838;28;20219;-82
2022/11/22 00:40:25;;;;;;;3.13;2.83;;;;;;;6.24;72.24;93758.06;5089338;28;20204;-82
2022/11/22 00:42:51;;;;;;;2.70;2.50;;;;;;;6.24;72.21;93767.50;5089343;28;20203;-81
2022/11/22 00:45:18;;;;;;;2.53;2.33;;;;;;;6.22;72.06;93766.91;5088804;28;20207;-82
2022/11/22 00:47:44;;;;;;;2.70;2.30;;;;;;;6.21;72.14;93775.56;5088967;28;20219;-80
2022/11/22 00:50:10;;;;;;;2.50;2.30;;;;;;;6.20;72.42;93784.97;5089122;28;20205;-80
2022/11/22 00:52:37;;;;;;;2.40;2.20;;;;;;;6.21;72.54;93780.66;5089040;28;20287;-82
2022/11/22 00:55:04;;;;;;;2.50;2.30;;;;;;;6.21;72.43;93778.09;5088756;28;20200;-81
2022/11/22 00:57:32;;;;;;;3.57;2.30;;;;;;;6.19;72.39;93782.63;5088649;28;20203;-81
2022/11/22 00:59:58;;;;;;;2.70;2.50;;;;;;;6.14;72.67;93785.78;5088919;28;20207;-82
2022/11/22 01:02:24;;;;;;;2.57;2.20;;;;;;;6.09;73.27;93779.66;5076563;28;20212;-82
2022/11/22 01:04:51;;;;;;;2.67;2.03;;;;;;;6.11;73.33;93787.94;5085197;28;20204;-82
2022/11/22 01:07:17;;;;;;;2.20;2.00;;;;;;;6.06;74.00;93785.94;5088783;28;20192;-82
2022/11/22 01:09:44;;;;;;;2.50;2.10;;;;;;;6.12;73.69;93789.50;5091423;28;20814;-82
2022/11/22 01:12:10;;;;;;;1.80;1.70;;;;;;;6.17;74.06;93771.81;5092209;28;20196;-81
2022/11/22 01:14:38;;;;;;;2.10;1.87;;;;;;;6.26;73.60;93777.53;5093095;28;20203;-81
2022/11/22 01:17:04;;;;;;;2.30;2.10;;;;;;;6.32;73.56;93771.66;5092520;28;20196;-81
2022/11/22 01:19:31;;;;;;;2.10;1.87;;;;;;;6.40;74.12;93774.00;5091867;28;20282;-82
2022/11/22 01:21:58;;;;;;;2.37;2.00;;;;;;;6.43;74.22;93779.53;5092836;28;20192;-81
2022/11/22 01:24:24;;;;;;;2.20;2.00;;;;;;;6.43;74.37;93774.41;5092335;28;20671;-82
2022/11/22 01:26:51;;;;;;;2.20;1.93;;;;;;;6.46;74.34;93771.47;5092621;28;20212;-80
2022/11/22 01:29:17;;;;;;;3.10;1.90;;;;;;;6.54;74.16;93763.59;5092193;28;20223;-81
2022/11/22 01:31:45;;;;;;;2.63;2.10;;;;;;;6.55;74.77;93760.06;5093432;28;20208;-81
2022/11/22 01:34:12;;;;;;;1.97;1.80;;;;;;;6.62;74.67;93761.84;5092293;28;20192;-81
2022/11/22 01:36:38;;;;;;;1.93;1.70;;;;;;;6.66;74.63;93755.34;5092716;28;20207;-82
2022/11/22 01:39:05;;;;;;;2.53;1.93;;;;;;;6.70;75.67;93759.88;5091781;28;20212;-81
2022/11/22 01:41:31;;;;;;;2.00;1.80;;;;;;;6.75;75.52;93761.81;5092960;28;20208;-82
2022/11/22 01:43:57;;;;;;;2.17;1.90;;;;;;;6.75;76.18;93760.06;5092438;28;20196;-81
2022/11/22 01:46:32;;;;;;;2.20;1.97;;;;;;;6.80;76.18;93757.69;5092390;28;20211;-81
2022/11/22 01:49:04;;;;;;;2.10;1.90;;;;;;;6.82;76.42;93755.72;5091834;28;20226;-82
2022/11/22 01:51:36;;;;;;;2.33;2.00;;;;;;;6.86;77.00;93748.44;5084609;28;20196;-82
2022/11/22 01:54:09;;;;;;;3.13;1.90;;;;;;;6.88;76.78;93749.03;5091625;28;20238;-81
2022/11/22 01:56:37;;;;;;;3.37;2.20;;;;;;;6.88;78.40;93747.28;5091877;28;20180;-81
2022/11/22 01:59:08;;;;;;;2.63;1.70;;;;;;;6.90;77.75;93740.19;5074900;28;20224;-82
2022/11/22 02:01:36;;;;;;;2.37;2.00;;;;;;;6.90;78.03;93739.41;5092153;28;20203;-81
2022/11/22 02:04:08;;;;;;;2.27;2.00;;;;;;;6.91;78.76;93749.44;5091618;28;20192;-82
2022/11/22 02:06:41;;;;;;;2.20;1.90;;;;;;;6.92;78.57;93753.56;5091616;28;20596;-81
2022/11/22 02:09:11;;;;;;;2.10;1.90;;;;;;;6.92;79.21;93753.56;5090856;28;20216;-81
2022/11/22 02:11:41;;;;;;;2.00;1.80;;;;;;;6.91;79.44;93753.75;5091322;28;20192;-81
2022/11/22 02:14:09;;;;;;;2.30;2.00;;;;;;;6.90;79.70;93762.41;5091611;28;20196;-81
2022/11/22 02:16:36;;;;;;;2.20;2.00;;;;;;;6.92;79.68;93758.69;5091241;28;20200;-81
2022/11/22 02:19:06;;;;;;;1.90;1.70;;;;;;;6.93;79.80;93757.66;5090842;28;20212;-82
2022/11/22 02:21:33;;;;;;;2.33;1.90;;;;;;;6.94;80.04;93761.81;5086111;28;20192;-80
2022/11/22 02:24:08;;;;;;;1.70;1.60;;;;;;;6.97;80.26;93757.28;5090934;28;20659;-81
2022/11/22 02:26:36;;;;;;;3.80;2.23;;;;;;;6.99;80.42;93762.97;5091086;28;20659;-81
2022/11/22 02:29:06;;;;;;;1.87;1.77;;;;;;;7.03;80.50;93756.50;5090658;28;20219;-81
2022/11/22 02:31:41;;;;;;;1.50;1.40;;;;;;;7.07;80.66;93752.56;5090999;28;20192;-81
2022/11/22 02:34:07;;;;;;;2.43;1.80;;;;;;;7.09;80.71;93751.38;5090959;28;20199;-81
2022/11/22 02:36:39;;;;;;;2.23;1.70;;;;;;;7.10;80.93;93755.50;5090907;28;20206;-81
2022/11/22 02:39:06;;;;;;;1.97;1.63;;;;;;;7.16;80.44;93759.00;5090804;28;20706;-82
2022/11/22 02:41:34;;;;;;;2.27;1.40;;;;;;;7.20;80.02;93758.41;5091014;28;20199;-81
2022/11/22 02:44:02;;;;;;;1.83;1.40;;;;;;;7.20;81.08;93755.84;5090858;28;20200;-81
2022/11/22 02:46:28;;;;;;;1.67;1.40;;;;;;;7.24;80.83;93751.13;5090975;28;20738;-81
2022/11/22 02:48:55;;;;;;;1.37;1.27;;;;;;;7.26;80.78;93767.06;5090184;28;20243;-81
2022/11/22 02:51:21;;;;;;;1.60;1.40;;;;;;;7.32;80.94;93763.69;5090805;28;20211;-82
2022/11/22 02:53:51;;;;;;;2.03;1.30;;;;;;;7.33;81.63;93762.72;5083690;28;20585;-80
2022/11/22 02:56:18;;;;;;;2.33;1.50;;;;;;;7.40;81.31;93766.03;5074967;28;20611;-83
2022/11/22 02:58:45;;;;;;;1.83;1.23;;;;;;;7.45;80.78;93763.69;5090798;28;20204;-82
2022/11/22 03:01:13;;;;;;;1.40;1.30;;;;;;;7.50;81.22;93765.63;5091135;28;20196;-79
2022/11/22 03:03:40;;;;;;;1.50;1.20;;;;;;;7.47;81.93;93760.91;5090704;28;20237;-80
2022/11/22 03:06:06;;;;;;;1.30;1.20;;;;;;;7.47;82.17;93768.59;5091145;28;20204;-82
2022/11/22 03:08:33;;;;;;;1.47;1.10;;;;;;;7.45;82.73;93770.56;5090604;28;20606;-81
2022/11/22 03:10:59;;;;;;;1.77;1.30;;;;;;;7.48;82.28;93770.16;5090702;28;20196;-81
2022/11/22 03:13:26;;;;;;;0.97;0.90;;;;;;;7.50;83.18;93760.53;5089242;28;20196;-81
2022/11/22 03:15:53;;;;;;;1.30;1.00;;;;;;;7.54;82.29;93762.44;5090838;28;20196;-82
2022/11/22 03:18:20;;;;;;;0.90;0.90;;;;;;;7.57;82.60;93763.81;5090362;28;20220;-81
2022/11/22 03:20:47;;;;;;;4.27;1.10;;;;;;;7.58;82.61;93765.41;5089941;28;20201;-83
2022/11/22 03:23:13;;;;;;;1.53;0.93;;;;;;;7.47;83.56;93771.16;5090057;28;20207;-81
2022/11/22 03:25:40;;;;;;;0.97;0.97;;;;;;;7.48;84.01;93772.72;5089942;28;20199;-82
2022/11/22 03:28:07;;;;;;;1.53;1.00;;;;;;;7.52;83.65;93776.44;5084388;28;20216;-81
2022/11/22 03:30:33;;;;;;;1.57;1.03;;;;;;;7.57;83.14;93785.09;5090116;28;20223;-82
2022/11/22 03:33:00;;;;;;;1.37;1.00;;;;;;;7.59;83.11;93784.91;5089175;28;20211;-81
2022/11/22 03:35:27;;;;;;;2.23;0.90;;;;;;;7.55;84.17;93783.72;5089318;28;21021;-82
2022/11/22 03:37:54;;;;;;;3.20;1.00;;;;;;;7.55;84.11;93786.28;5089756;28;20220;-81
2022/11/22 03:40:20;;;;;;;1.20;1.10;;;;;;;7.52;84.67;93789.25;5089860;28;20193;-81
2022/11/22 03:42:47;;;;;;;1.67;1.10;;;;;;;7.52;85.05;93792.59;5090012;28;20223;-81
2022/11/22 03:45:14;;;;;;;1.10;1.00;;;;;;;7.49;86.08;93790.47;5089713;28;20192;-81
2022/11/22 03:47:40;;;;;;;4.87;3.50;;;;;;;7.51;86.34;93788.44;5089748;28;20262;-82
2022/11/22 03:50:07;;;;;;;1.80;1.10;;;;;;;7.51;87.15;93792.78;5083455;28;20226;-81
2022/11/22 03:52:35;;;;;;;1.13;1.03;;;;;;;7.49;87.24;93802.47;5072632;28;20205;-81
2022/11/22 03:55:01;;;;;;;1.60;1.17;;;;;;;7.44;88.66;93802.28;5087986;28;20203;-82
2022/11/22 03:57:28;;;;;;;1.00;1.00;;;;;;;7.46;89.11;93805.44;5088534;28;20204;-82
2022/11/22 03:59:54;;;;;;;1.40;1.30;;;;;;;7.40;89.87;93804.44;5089765;28;20204;-82
2022/11/22 04:02:21;;;;;;;1.70;1.20;;;;;;;7.38;90.99;93806.41;5089261;28;20571;-82
2022/11/22 04:04:47;;;;;;;1.47;1.20;;;;;;;7.41;90.88;93808.59;5089026;28;20199;-81
2022/11/22 04:07:13;;;;;;;1.57;1.07;;;;;;;7.46;90.77;93806.22;5089299;28;20196;-81
2022/11/22 04:09:41;;;;;;;1.40;1.20;;;;;;;7.52;90.53;93810.50;5089328;28;20215;-82
2022/11/22 04:12:08;;;;;;;1.30;1.20;;;;;;;7.54;90.83;93802.63;5088370;28;20195;-82
2022/11/22 04:17:39;;;;;;;1.83;1.20;;;;;;;7.45;92.92;93807.19;5075864;28;20202;-81
2022/11/22 04:22:42;;;;;;;1.10;1.00;;;;;;;7.49;93.07;93802.47;5088610;28;20199;-82
2022/11/22 04:25:16;;;;;;;0.93;0.90;;;;;;;7.46;93.89;93802.88;5089475;28;20204;-80
2022/11/22 04:27:42;;;;;;;2.47;1.00;;;;;;;7.49;94.06;93797.34;5089574;28;20675;-80
2022/11/22 04:30:09;;;;;;;0.90;0.90;;;;;;;7.49;94.61;93799.91;5089232;28;20215;-81
2022/11/22 04:32:46;;;;;;;1.00;0.80;;;;;;;7.50;94.01;93802.28;5089862;28;20617;-81
2022/11/22 04:35:14;;;;;;;1.23;1.00;;;;;;;7.54;94.50;93797.50;5089345;28;20271;-82
2022/11/22 04:37:41;;;;;;;1.53;0.80;;;;;;;7.57;94.15;93804.78;5089054;28;20196;-82
2022/11/22 04:40:11;;;;;;;1.00;1.00;;;;;;;7.57;94.52;93812.47;5089312;28;20723;-81
2022/11/22 04:45:22;;;;;;;1.07;0.80;;;;;;;7.60;94.67;93818.00;5093234;28;20650;-82
2022/11/22 04:48:00;;;;;;;1.10;0.90;;;;;;;7.58;94.87;93808.94;5080861;28;20288;-81
2022/11/22 04:53:12;;;;;;;0.90;0.80;;;;;;;7.57;95.33;93809.91;5092517;28;20203;-82
2022/11/22 04:55:40;;;;;;;1.30;0.83;;;;;;;7.63;94.15;93809.13;5093246;28;20196;-81
2022/11/22 04:58:07;;;;;;;0.70;0.70;;;;;;;7.66;94.13;93811.28;5092162;28;20223;-81
2022/11/22 05:00:34;;;;;;;0.97;0.97;;;;;;;7.68;94.01;93809.31;5092634;28;20659;-81
2022/11/22 05:03:01;;;;;;;0.97;0.87;;;;;;;7.60;95.48;93814.63;5092779;28;20195;-82
2022/11/22 05:05:28;;;;;;;1.97;1.10;;;;;;;7.63;95.11;93812.47;5084070;28;20192;-81
2022/11/22 05:07:55;;;;;;;0.80;0.80;;;;;;;7.57;95.72;93813.25;5092411;28;20199;-82
2022/11/22 05:10:22;;;;;;;1.30;1.00;;;;;;;7.55;96.18;93811.88;5088799;28;20223;-81
2022/11/22 05:12:49;;;;;;;0.93;0.90;;;;;;;7.56;97.02;93813.47;5090120;28;20192;-82
2022/11/22 05:15:16;;;;;;;1.10;1.00;;;;;;;7.59;96.26;93820.75;5092363;28;20192;-81
2022/11/22 05:17:42;;;;;;;1.10;1.00;;;;;;;7.60;96.42;93824.88;5092518;28;20270;-81
2022/11/22 05:20:10;;;;;;;1.03;0.80;;;;;;;7.62;96.04;93825.47;5092547;28;20192;-82
2022/11/22 05:25:21;;;;;;;1.20;1.10;;;;;;;7.57;96.92;93831.19;5086364;28;20198;-81
2022/11/22 05:27:47;;;;;;;1.20;1.00;;;;;;;7.58;96.53;93829.41;5091405;28;20200;-81
2022/11/22 05:30:15;;;;;;;1.30;0.90;;;;;;;7.58;97.59;93834.53;5092056;28;20220;-82
2022/11/22 05:32:42;;;;;;;1.83;1.00;;;;;;;7.61;97.12;93837.50;5075363;28;20208;-81
2022/11/22 05:35:09;;;;;;;2.23;1.30;;;;;;;7.66;96.97;93836.09;5078094;28;20193;-81
2022/11/22 05:37:35;;;;;;;1.17;0.90;;;;;;;7.62;98.01;93839.06;5092156;28;20196;-82
2022/11/22 05:40:01;;;;;;;1.97;1.77;;;;;;;7.64;97.45;93836.31;5092075;28;20212;-81
2022/11/22 05:42:28;;;;;;;0.90;0.90;;;;;;;7.65;97.28;93840.44;5090493;28;20235;-81
2022/11/22 05:44:54;;;;;;;1.20;1.00;;;;;;;7.65;98.13;93839.66;5084127;28;20192;-82
2022/11/22 05:47:22;;;;;;;1.07;0.97;;;;;;;7.63;98.54;93835.53;5092188;28;20211;-81
2022/11/22 05:49:48;;;;;;;1.83;1.10;;;;;;;7.61;98.78;93834.94;5092505;28;20618;-80
2022/11/22 05:52:15;;;;;;;2.20;1.20;;;;;;;7.57;99.77;93831.19;5089006;28;20203;-80
2022/11/22 05:54:41;;;;;;;1.53;1.30;;;;;;;7.56;99.85;93837.28;5086663;28;20204;-82
2022/11/22 05:57:08;;;;;;;1.57;1.47;;;;;;;7.62;99.26;93839.06;5091860;28;20204;-81
2022/11/22 05:59:34;;;;;;;2.63;1.47;;;;;;;7.65;99.50;93840.44;5092483;28;20631;-81
2022/11/22 06:02:01;;;;;;;24.80;5.70;;;;;;;7.66;100.00;93839.44;5092307;28;20210;-80
2022/11/22 06:04:29;;;;;;;11.77;4.60;;;;;;;7.65;100.00;93837.88;5092056;28;20196;-80
2022/11/22 06:06:55;;;;;;;4.37;1.93;;;;;;;7.71;100.00;93844.75;5086165;28;20216;-80
2022/11/22 06:09:22;;;;;;;1.67;1.50;;;;;;;7.65;100.00;93845.56;5068115;28;20233;-81
2022/11/22 06:11:49;;;;;;;2.27;1.40;;;;;;;7.67;100.00;93837.69;5089653;28;20284;-79
2022/11/22 06:14:15;;;;;;;1.60;1.50;;;;;;;7.59;100.00;93836.91;5091726;28;20200;-80
2022/11/22 06:16:42;;;;;;;2.57;2.37;;;;;;;7.60;100.00;93841.03;5092292;28;20204;-81
2022/11/22 06:19:08;;;;;;;1.63;1.43;;;;;;;7.63;100.00;93830.41;5091034;28;20757;-81
2022/11/22 06:21:36;;;;;;;1.83;1.70;;;;;;;7.65;100.00;93845.56;5091226;28;20200;-80
2022/11/22 06:24:03;;;;;;;1.60;1.50;;;;;;;7.62;100.00;93843.41;5091403;28;20283;-80
2022/11/22 06:26:29;;;;;;;3.93;2.30;;;;;;;7.65;100.00;93837.09;5092888;28;20204;-81
2022/11/22 06:28:56;;;;;;;3.17;2.73;;;;;;;7.65;100.00;93845.56;5092017;28;20227;-81
2022/11/22 06:31:24;;;;;;;2.40;2.20;;;;;;;7.72;99.31;93848.88;5091229;28;20278;-80
2022/11/22 06:33:52;;;;;;;1.70;1.60;;;;;;;7.70;99.89;93855.97;5091456;28;20196;-80
2022/11/22 06:36:20;;;;;;;3.13;1.57;;;;;;;7.69;99.81;93851.88;5091661;28;20218;-80
2022/11/22 06:38:49;;;;;;;2.37;1.57;;;;;;;7.62;100.00;93859.56;5084836;28;20232;-81
2022/11/22 06:41:17;;;;;;;2.23;1.47;;;;;;;7.69;100.00;93856.19;5082974;28;20196;-81
2022/11/22 06:43:46;;;;;;;1.60;1.50;;;;;;;7.63;100.00;93866.25;5073610;28;20751;-80
2022/11/22 06:46:13;;;;;;;2.70;1.80;;;;;;;7.66;100.00;93879.66;5070868;28;20197;-80
2022/11/22 06:48:41;;;;;;;2.03;1.57;;;;;;;7.67;100.00;93881.22;5070574;28;20225;-80
2022/11/22 06:51:10;;;;;;;2.73;1.63;;;;;;;7.69;100.00;93881.81;5070782;28;20228;-81
2022/11/22 06:53:37;;;;;;;1.90;1.50;;;;;;;7.77;99.96;93884.94;5070536;28;20217;-80
2022/11/22 06:56:07;;;;;;;2.50;1.97;;;;;;;7.79;100.00;93885.50;5070918;28;20295;-80
2022/11/22 06:58:35;;;;;;;1.90;1.50;;;;;;;7.80;100.00;93888.88;5070256;28;20236;-80
2022/11/22 07:01:02;;;;;;;2.83;1.83;;;;;;;7.80;99.93;93896.56;5070753;28;20200;-80
2022/11/22 07:03:28;;;;;;;2.70;1.90;;;;;;;7.80;100.00;93902.47;5070241;28;20215;-80
2022/11/22 07:05:56;;;;;;;2.77;2.10;;;;;;;7.78;100.00;93904.44;5085932;28;20613;-81
2022/11/22 07:08:22;;;;;;;3.47;2.20;;;;;;;7.76;100.00;93908.97;5090247;28;20597;-80
2022/11/22 07:10:49;;;;;;;2.30;2.10;;;;;;;7.70;100.00;93914.88;5090398;28;20224;-80
2022/11/22 07:13:17;;;;;;;2.33;2.00;;;;;;;7.65;100.00;93914.72;5090326;28;20204;-81
2022/11/22 07:15:43;;;;;;;2.80;2.17;;;;;;;7.65;100.00;93922.41;5090260;28;20207;-79
2022/11/22 07:18:09;;;;;;;3.13;2.63;;;;;;;7.63;100.00;93921.81;5090113;28;20216;-80
2022/11/22 07:20:36;;;;;;;2.90;2.50;;;;;;;7.63;100.00;93922.59;5090152;28;20319;-80
2022/11/22 07:23:02;;;;;;;3.00;2.50;;;;;;;7.70;100.00;93924.38;5090488;28;20203;-79
2022/11/22 07:25:29;;;;;;;5.17;2.77;;;;;;;7.70;100.00;93930.25;5090607;28;20204;-81
2022/11/22 07:27:55;;;;;;;3.27;2.53;;;;;;;7.72;100.00;93932.59;5088336;28;20203;-80
2022/11/22 07:30:23;;;;;;;3.50;2.80;;;;;;;7.69;100.00;93930.47;5090904;28;20224;-80
2022/11/22 07:32:49;;;;;;;2.87;2.63;;;;;;;7.72;100.00;93930.84;5090176;28;20204;-80
2022/11/22 07:35:16;;;;;;;5.80;2.70;;;;;;;7.71;100.00;93936.16;5084672;28;20222;-80
2022/11/22 07:37:42;;;;;;;6.23;3.20;;;;;;;7.73;100.00;93939.31;5077148;28;20219;-82
2022/11/22 07:40:11;;;;;;;3.83;2.90;;;;;;;7.68;100.00;93944.25;5070505;28;20181;-80
2022/11/22 07:42:37;;;;;;;5.30;3.00;;;;;;;7.74;100.00;93946.78;5082530;28;20568;-79
2022/11/22 07:45:04;;;;;;;4.30;2.77;;;;;;;7.77;100.00;93955.88;5089954;28;20664;-80
2022/11/22 07:47:32;;;;;;;4.27;2.90;;;;;;;7.76;100.00;93956.84;5087748;28;20659;-81
2022/11/22 07:49:58;;;;;;;4.60;3.10;;;;;;;7.80;100.00;93956.25;5069854;28;20228;-80
2022/11/22 07:52:25;;;;;;;4.20;2.70;;;;;;;7.80;100.00;93955.47;5069823;28;20208;-81
2022/11/22 07:54:51;;;;;;;3.43;2.87;;;;;;;7.77;100.00;93958.44;5069063;28;20209;-80
2022/11/22 07:57:18;;;;;;;5.60;3.97;;;;;;;7.81;99.66;93969.84;5069451;28;20208;-80
2022/11/22 07:59:44;;;;;;;4.93;3.20;;;;;;;7.74;100.00;93974.97;5069101;28;20228;-80
2022/11/22 08:02:11;;;;;;;4.83;3.10;;;;;;;7.68;100.00;93968.09;5069573;28;20201;-81
2022/11/22 08:04:39;;;;;;;6.03;3.50;;;;;;;7.65;100.00;93976.19;5071247;28;20223;-80
2022/11/22 08:07:05;;;;;;;4.13;3.37;;;;;;;7.64;100.00;93984.84;5089727;28;20203;-80
2022/11/22 08:09:32;;;;;;;4.40;3.40;;;;;;;7.69;100.00;93976.56;5089564;28;20216;-80
2022/11/22 08:11:58;;;;;;;5.33;3.00;;;;;;;7.72;100.00;93981.28;5088568;28;20219;-80
2022/11/22 08:14:25;;;;;;;4.77;3.37;;;;;;;7.78;100.00;93983.84;5085071;28;20200;-80
2022/11/22 08:16:51;;;;;;;5.13;3.33;;;;;;;7.81;100.00;93986.00;5089985;28;20203;-81
2022/11/22 08:19:18;;;;;;;5.83;3.20;;;;;;;7.83;99.95;93996.84;5088576;28;20223;-81
2022/11/22 08:21:47;;;;;;;5.47;3.43;;;;;;;7.90;99.52;94001.94;5089625;28;20593;-80
2022/11/22 08:24:15;;;;;;;5.93;3.70;;;;;;;7.88;100.00;94003.94;5089221;28;20210;-81
2022/11/22 08:26:42;;;;;;;5.87;4.20;;;;;;;7.77;100.00;94013.00;5069623;28;20197;-80
2022/11/22 08:29:10;;;;;;;5.73;4.37;;;;;;;7.70;100.00;94001.97;5068872;28;20229;-81
2022/11/22 08:31:37;;;;;;;7.40;3.77;;;;;;;7.74;100.00;94015.16;5075578;28;20281;-80
2022/11/22 08:34:04;;;;;;;6.17;3.93;;;;;;;7.77;100.00;94017.34;5080650;28;20196;-80
2022/11/22 08:36:30;;;;;;;6.33;4.00;;;;;;;7.82;100.00;94022.66;5089673;28;20203;-81
2022/11/22 08:38:58;;;;;;;6.70;3.67;;;;;;;7.87;100.00;94028.00;5089159;28;20231;-79
2022/11/22 08:41:25;;;;;;;5.53;3.90;;;;;;;7.86;100.00;94036.66;5089799;28;20200;-80
2022/11/22 08:43:52;;;;;;;5.27;3.70;;;;;;;7.83;100.00;94026.81;5070391;28;20200;-81
2022/11/22 08:46:19;;;;;;;4.93;3.77;;;;;;;7.85;100.00;94040.22;5068990;28;20205;-81
2022/11/22 08:48:46;;;;;;;4.70;3.67;;;;;;;7.86;100.00;94034.91;5069479;28;20224;-80
2022/11/22 08:51:14;;;;;;;7.67;3.93;;;;;;;7.85;100.00;94038.44;5069173;28;20228;-80
2022/11/22 08:53:42;;;;;;;4.20;3.53;;;;;;;7.83;100.00;94039.63;5069174;28;20208;-80
2022/11/22 08:56:12;;;;;;;9.40;4.30;;;;;;;7.80;100.00;94042.56;5069755;28;20265;-80
2022/11/22 08:58:39;;;;;;;4.93;3.70;;;;;;;7.89;100.00;94043.94;5068648;28;20225;-81
2022/11/22 09:01:06;;;;;;;4.40;3.83;;;;;;;7.95;100.00;94049.06;5069623;28;20205;-80
2022/11/22 09:03:34;;;;;;;4.20;3.63;;;;;;;8.01;100.00;94046.72;5069609;28;20237;-81
2022/11/22 09:06:02;;;;;;;6.23;3.70;;;;;;;8.07;100.00;94056.97;5069076;28;20197;-81
2022/11/22 09:08:28;;;;;;;5.50;3.47;;;;;;;8.10;100.00;94058.31;5083761;28;20228;-81
2022/11/22 09:10:55;;;;;;;4.10;3.33;;;;;;;8.07;100.00;94058.72;5089641;28;20461;-81
2022/11/22 09:13:22;;;;;;;4.70;3.50;;;;;;;8.08;100.00;94062.88;5082229;28;20571;-80
2022/11/22 09:15:49;;;;;;;5.03;3.20;;;;;;;8.09;100.00;94057.53;5069018;28;20201;-81
2022/11/22 09:18:15;;;;;;;6.43;3.27;;;;;;;8.07;100.00;94064.66;5068956;28;20229;-80
2022/11/22 09:20:42;;;;;;;4.00;3.03;;;;;;;8.03;100.00;94071.16;5082039;28;20199;-80
2022/11/22 09:23:08;;;;;;;4.30;3.03;;;;;;;7.94;100.00;94073.13;5089211;28;20231;-81
2022/11/22 09:25:35;;;;;;;7.50;3.43;;;;;;;7.90;100.00;94071.13;5081792;28;20209;-80
2022/11/22 09:28:02;;;;;;;4.23;3.37;;;;;;;7.99;100.00;94077.66;5077038;28;20200;-80
2022/11/22 09:30:30;;;;;;;4.27;3.03;;;;;;;8.05;100.00;94081.22;5081667;28;20240;-79
2022/11/22 09:32:56;;;;;;;4.53;3.00;;;;;;;8.05;100.00;94084.56;5091813;28;20215;-80
2022/11/22 09:35:23;;;;;;;3.77;2.80;;;;;;;8.03;100.00;94088.31;5092603;28;20199;-80
2022/11/22 09:37:49;;;;;;;3.73;3.00;;;;;;;8.07;100.00;94087.72;5091677;28;20199;-80
2022/11/22 09:40:16;;;;;;;4.43;2.93;;;;;;;8.08;100.00;94096.19;5092698;28;20204;-80
2022/11/22 09:43:08;;;;;;;5.10;3.20;;;;;;;8.06;100.00;94088.69;5083452;28;20212;-80
2022/11/22 09:45:46;;;;;;;3.97;3.03;;;;;;;8.13;100.00;94098.94;5072641;28;20177;-80
2022/11/22 09:48:30;;;;;;;6.10;3.67;;;;;;;8.11;100.00;94091.44;5074441;28;20235;-81
2022/11/22 09:51:02;;;;;;;5.20;3.10;;;;;;;8.14;100.00;94095.38;5072335;28;20216;-80
2022/11/22 09:53:35;;;;;;;6.27;2.80;;;;;;;8.16;100.00;94096.78;5072000;28;20251;-81
2022/11/22 09:56:05;;;;;;;5.80;3.20;;;;;;;7.98;100.00;94094.81;5072062;28;20724;-80
2022/11/22 09:58:36;;;;;;;4.07;2.77;;;;;;;7.90;100.00;94094.97;5071985;28;20415;-80
2022/11/22 10:01:11;;;;;;;3.23;2.47;;;;;;;7.88;99.78;94098.75;5071749;28;20193;-80
2022/11/22 10:03:46;;;;;;;5.33;3.10;;;;;;;7.88;100.00;94093.63;5072232;28;20185;-81
2022/11/22 10:06:19;;;;;;;4.93;2.57;;;;;;;7.87;100.00;94105.66;5072203;28;20200;-80
2022/11/22 10:08:56;;;;;;;6.90;3.00;;;;;;;7.87;99.56;94105.66;5071959;28;20225;-80
2022/11/22 10:11:33;;;;;;;5.60;2.13;;;;;;;7.88;97.53;94109.78;5072077;28;20205;-79
2022/11/22 10:14:04;;;;;;;5.90;2.40;;;;;;;7.90;97.54;94101.88;5073136;28;20187;-81
2022/11/22 10:16:38;;;;;;;5.07;2.13;;;;;;;7.90;96.26;94096.75;5072128;28;20265;-80
2022/11/22 10:19:12;;;;;;;5.13;2.17;;;;;;;7.97;96.03;94100.91;5071739;28;20854;-80
2022/11/22 10:21:38;;;;;;;5.00;2.03;;;;;;;8.05;96.01;94091.47;5072045;28;20188;-79
2022/11/22 10:24:06;;;;;;;3.37;1.90;;;;;;;8.14;95.26;94092.81;5073632;28;20201;-79
2022/11/22 10:26:34;;;;;;;2.90;1.80;;;;;;;8.09;94.83;94097.75;5083611;28;20203;-78
2022/11/22 10:29:14;;;;;;;7.30;2.40;;;;;;;8.06;94.98;94098.16;5092060;28;20216;-80
2022/11/22 10:31:49;;;;;;;4.63;2.07;;;;;;;8.12;95.08;94098.16;5091219;28;20215;-79
2022/11/22 10:34:25;;;;;;;4.73;1.73;;;;;;;8.03;94.71;94101.13;5092750;28;20207;-79
2022/11/22 10:36:57;;;;;;;5.23;1.73;;;;;;;8.04;95.29;94100.13;5092128;28;20180;-80
2022/11/22 10:39:43;;;;;;;2.77;1.70;;;;;;;8.05;94.47;94097.38;5092106;28;20257;-81
2022/11/22 10:42:31;;;;;;;5.53;1.70;;;;;;;8.02;93.58;94095.19;5086933;28;20552;-81
2022/11/22 10:45:03;;;;;;;5.47;1.63;;;;;;;8.08;94.03;94085.94;5071806;28;20275;-81
2022/11/22 10:47:47;;;;;;;2.97;1.80;;;;;;;8.10;94.25;94087.28;5071267;28;20200;-78
2022/11/22 10:50:18;;;;;;;6.80;2.37;;;;;;;8.12;93.32;94084.53;5071331;28;20189;-81
2022/11/22 10:52:53;;;;;;;3.63;1.90;;;;;;;8.20;92.92;94081.78;5070978;28;20213;-80
2022/11/22 10:55:39;;;;;;;2.60;1.87;;;;;;;8.29;93.04;94075.44;5071429;28;20214;-81
2022/11/22 10:58:14;;;;;;;5.23;1.97;;;;;;;8.35;92.74;94074.69;5070827;28;20200;-80
2022/11/22 11:00:45;;;;;;;5.73;2.57;;;;;;;8.38;92.67;94073.50;5071705;28;20575;-81
2022/11/22 11:03:27;;;;;;;4.33;2.10;;;;;;;8.42;91.71;94072.91;5076104;28;20192;-81
2022/11/22 11:05:58;;;;;;;4.93;2.10;;;;;;;8.38;91.89;94076.06;5091457;28;20555;-81
2022/11/22 11:08:32;;;;;;;4.37;1.80;;;;;;;8.24;89.98;94075.28;5090805;28;20750;-81
2022/11/22 11:11:01;;;;;;;3.83;1.70;;;;;;;8.28;91.49;94091.81;5090921;28;20675;-79
2022/11/22 11:13:31;;;;;;;3.80;1.80;;;;;;;8.26;91.29;94091.25;5090677;28;20211;-80
2022/11/22 11:16:01;;;;;;;5.73;2.33;;;;;;;8.29;92.05;94085.72;5091231;28;20200;-81
2022/11/22 11:18:33;;;;;;;4.70;2.20;;;;;;;8.26;91.25;94091.25;5090439;28;20231;-80
2022/11/22 11:20:59;;;;;;;4.57;1.83;;;;;;;8.27;90.36;94091.03;5082830;28;20215;-80
2022/11/22 11:23:26;;;;;;;6.33;2.17;;;;;;;8.25;90.44;94087.91;5083634;28;20196;-80
2022/11/22 11:25:52;;;;;;;5.53;2.10;;;;;;;8.14;90.15;94085.91;5090783;28;20207;-81
2022/11/22 11:28:21;;;;;;;3.53;1.60;;;;;;;8.02;90.58;94084.94;5090028;28;20727;-80
2022/11/22 11:30:52;;;;;;;3.87;1.90;;;;;;;7.99;90.89;94093.03;5090581;28;20203;-80
2022/11/22 11:33:23;;;;;;;2.33;1.67;;;;;;;7.97;92.60;94093.22;5090217;28;20285;-81
2022/11/22 11:35:53;;;;;;;4.17;2.10;;;;;;;8.06;94.05;94090.47;5090340;28;20199;-80
2022/11/22 11:38:31;;;;;;;4.07;1.90;;;;;;;8.18;93.47;94078.63;5089910;28;20319;-81
2022/11/22 11:40:58;;;;;;;3.57;1.80;;;;;;;8.21;93.99;94080.81;5089672;28;20655;-80
2022/11/22 11:43:25;;;;;;;5.53;1.90;;;;;;;8.05;91.45;94076.09;5089618;28;20849;-80
2022/11/22 11:45:52;;;;;;;2.93;1.63;;;;;;;7.98;92.71;94079.44;5089497;28;20197;-79
2022/11/22 11:48:29;;;;;;;5.33;2.20;;;;;;;8.04;93.32;94077.06;5089560;28;20228;-80
2022/11/22 11:51:15;;;;;;;4.47;1.60;;;;;;;8.03;91.99;94083.97;5089839;28;20211;-80
2022/11/22 11:53:50;;;;;;;6.87;1.60;;;;;;;8.03;92.35;94080.63;5070555;28;20695;-80
2022/11/22 11:56:21;;;;;;;3.87;1.50;;;;;;;8.07;91.64;94079.25;5069391;28;20270;-79
2022/11/22 11:58:53;;;;;;;5.60;1.93;;;;;;;8.09;92.23;94088.28;5069404;28;20221;-80